»·PEaware :: RYA112 KSAN-KSNA

RYA112 :: KSAN-KSNA

FLIGHT INFORMATION

Flight Status: Arrived
Operator: Unknown
More flights by this operator :: More flights under this callsign
Pilot: Mathias J. (24499)
Aircraft: AIRBUS A320
(A320)
More flights by this aircraft type
Origin: KSAN San Diego Intl-Lindbergh
United States
Destination: KSNA John Wayne-Orange Co
United States
More flights between these airports :: More routes between these airports
Route: +CWARD2 SLI
File this flight plan on PilotEdge
Remarks:
Altitude:
(Current/Filed)
8,000ft
Speed:
(Current/Filed)
245kts
Departed: 21-Nov-20 01:17 PM
Arrived: 21-Nov-20 01:53 PM
Distance/Time
Traveled:
66nm/0:36
Distance/Time
To Go:
Arrived

Flight Plot

Page will automatically refresh every two minutes.

Flight plan parsing failed; only flown route is shown


Map Options




Map Legend


Flown Route
Filed Route
Departure Airport
Arrival Airport
Navaid (VOR, NDB)
Fix

Horizontal Profiles

Position Reports

Time Latitude Longitude Heading Altitude Ground
Speed
21-Nov-20 12:16 32.732881 -117.195483 275 26ft 0kts
21-Nov-20 12:17 32.732881 -117.195483 275 26ft 0kts
21-Nov-20 12:18 32.732881 -117.195483 275 26ft 0kts
21-Nov-20 12:19 32.732881 -117.195483 275 26ft 0kts
21-Nov-20 12:20 32.732881 -117.195483 275 26ft 0kts
21-Nov-20 12:21 32.732880 -117.195483 275 26ft 0kts
21-Nov-20 12:22 32.732880 -117.195483 275 26ft 0kts
21-Nov-20 12:23 32.732880 -117.195483 275 26ft 0kts
21-Nov-20 12:24 32.732880 -117.195483 275 26ft 0kts
21-Nov-20 12:24 32.732880 -117.195483 275 26ft 0kts
21-Nov-20 12:26 32.732880 -117.195483 275 26ft 0kts
21-Nov-20 12:26 32.732880 -117.195482 275 26ft 0kts
21-Nov-20 12:28 32.732880 -117.195482 275 26ft 0kts
21-Nov-20 12:28 32.732880 -117.195482 275 26ft 0kts
21-Nov-20 12:29 32.732880 -117.195482 275 26ft 0kts
21-Nov-20 12:31 32.732880 -117.195482 275 26ft 0kts
21-Nov-20 12:31 32.732880 -117.195482 275 26ft 0kts
21-Nov-20 12:32 32.732880 -117.195482 275 26ft 0kts
21-Nov-20 12:33 32.732880 -117.195482 275 26ft 0kts
21-Nov-20 12:34 32.732880 -117.195482 275 26ft 0kts
21-Nov-20 12:35 32.732880 -117.195482 275 26ft 0kts
21-Nov-20 12:36 32.732880 -117.195482 275 26ft 0kts
21-Nov-20 12:37 32.732880 -117.195482 275 26ft 0kts
21-Nov-20 12:38 32.732880 -117.195482 275 26ft 0kts
21-Nov-20 12:39 32.732880 -117.195482 275 26ft 0kts
21-Nov-20 12:40 32.732880 -117.195482 275 26ft 0kts
21-Nov-20 12:41 32.732880 -117.195482 275 26ft 0kts
21-Nov-20 12:42 32.732880 -117.195482 275 26ft 0kts
21-Nov-20 12:43 32.732880 -117.195482 275 26ft 0kts
21-Nov-20 12:44 32.732880 -117.195482 275 26ft 0kts
21-Nov-20 12:45 32.732880 -117.195482 275 26ft 0kts
21-Nov-20 12:46 32.732880 -117.195482 275 26ft 0kts
21-Nov-20 12:47 32.732880 -117.195482 275 26ft 0kts
21-Nov-20 12:48 32.732880 -117.195482 275 26ft 0kts
21-Nov-20 12:49 32.732880 -117.195482 275 26ft 0kts
21-Nov-20 12:50 32.732882 -117.195499 275 26ft 0kts
21-Nov-20 12:51 32.732838 -117.194983 275 26ft 0kts
21-Nov-20 12:52 32.732838 -117.194986 275 26ft 0kts
21-Nov-20 12:53 32.732838 -117.194986 275 26ft 0kts
21-Nov-20 12:54 32.732838 -117.194986 275 26ft 0kts
21-Nov-20 12:55 32.733153 -117.195069 31 26ft 8kts
21-Nov-20 12:56 32.733191 -117.192393 106 26ft 12kts
21-Nov-20 12:57 32.732247 -117.188453 106 26ft 17kts
21-Nov-20 12:58 32.730936 -117.183060 105 26ft 23kts
21-Nov-20 12:59 32.729488 -117.177102 98 26ft 5kts
21-Nov-20 13:00 32.729486 -117.177073 94 26ft 0kts
21-Nov-20 13:01 32.729486 -117.177073 94 26ft 0kts
21-Nov-20 13:02 32.729486 -117.177073 94 26ft 0kts
21-Nov-20 13:04 32.729486 -117.177073 94 26ft 0kts
21-Nov-20 13:08 32.729470 -117.176831 94 26ft 2kts
21-Nov-20 13:09 32.729395 -117.175693 94 26ft 5kts
21-Nov-20 13:14 32.729466 -117.176772 94 26ft 0kts
21-Nov-20 13:15 32.729538 -117.176523 55 26ft 5kts
21-Nov-20 13:16 32.731976 -117.183028 286 27ft 113kts
21-Nov-20 13:17 32.747334 -117.230884 304 1403ft 256kts
21-Nov-20 13:18 32.786981 -117.298493 302 3893ft 325kts
21-Nov-20 13:19 32.835356 -117.374514 306 6451ft 298kts
21-Nov-20 13:20 32.854568 -117.404076 306 7645ft 274kts
21-Nov-20 13:25 33.014589 -117.652753 305 9961ft 279kts
21-Nov-20 13:26 33.058316 -117.721110 306 9961ft 277kts
21-Nov-20 13:27 33.110863 -117.777341 316 9962ft 278kts
21-Nov-20 13:28 33.162271 -117.829682 317 9962ft 277kts
21-Nov-20 13:29 33.216126 -117.867601 345 9968ft 283kts
21-Nov-20 13:30 33.282890 -117.884052 345 9972ft 282kts
21-Nov-20 13:31 33.348083 -117.900284 345 9969ft 282kts
21-Nov-20 13:32 33.413971 -117.920087 340 9508ft 276kts
21-Nov-20 13:33 33.474618 -117.942137 341 8289ft 272kts
21-Nov-20 13:34 33.536210 -117.964542 341 7068ft 268kts
21-Nov-20 13:35 33.600008 -117.987780 341 5803ft 264kts
21-Nov-20 13:36 33.655852 -118.008150 341 4972ft 252kts
21-Nov-20 13:37 33.709697 -118.027818 341 4967ft 262kts
21-Nov-20 13:38 33.760093 -118.016332 51 4986ft 271kts
21-Nov-20 13:39 33.801840 -117.972667 33 5181ft 262kts
21-Nov-20 13:40 33.844650 -117.937278 32 4957ft 241kts
21-Nov-20 13:41 33.886787 -117.902488 32 4954ft 240kts
21-Nov-20 13:42 33.926278 -117.856024 79 4956ft 246kts
21-Nov-20 13:43 33.923876 -117.787799 92 4047ft 251kts
21-Nov-20 13:44 33.920103 -117.722777 92 3961ft 216kts
21-Nov-20 13:45 33.891467 -117.683287 186 3972ft 220kts
21-Nov-20 13:46 33.852402 -117.710174 242 3969ft 216kts
21-Nov-20 13:47 33.830421 -117.758896 242 3965ft 216kts
21-Nov-20 13:48 33.796627 -117.792329 208 3884ft 219kts
21-Nov-20 13:49 33.754716 -117.818781 208 2698ft 243kts
21-Nov-20 13:50 33.709324 -117.848192 208 1454ft 200kts
21-Nov-20 13:51 33.674917 -117.869474 206 68ft 148kts
21-Nov-20 13:52 33.665466 -117.876456 222 65ft 10kts
21-Nov-20 13:53 33.665510 -117.876453 34 65ft 27kts
21-Nov-20 13:54 33.668365 -117.872194 198 65ft 0kts
21-Nov-20 13:57 33.680655 -117.861423 137 65ft 0kts
21-Nov-20 13:58 33.680655 -117.861423 137 65ft 0kts
21-Nov-20 13:59 33.680655 -117.861423 137 65ft 0kts
21-Nov-20 14:00 33.680655 -117.861423 137 65ft 0kts
21-Nov-20 14:01 33.680655 -117.861423 137 65ft 0kts
21-Nov-20 14:03 33.680655 -117.861423 137 65ft 0kts
21-Nov-20 14:04 33.680655 -117.861423 137 65ft 0kts
21-Nov-20 14:05 33.680655 -117.861423 137 65ft 0kts
21-Nov-20 14:06 33.680655 -117.861423 137 65ft 0kts
21-Nov-20 14:07 33.680655 -117.861423 137 65ft 0kts

Navigation Log

Ident Type
Flight plan parsing failed, navigation log unavailable